sensor_id;sensor_type;location;lat;lon;timestamp;pressure;altitude;pressure_sealevel;temperature;humidity
929;BME280;451;47.988;7.842;2022-08-05T00:02:28;98112.44;;;26.36;62.06
929;BME280;451;47.988;7.842;2022-08-05T00:11:30;98052.50;;;25.61;62.86
929;BME280;451;47.988;7.842;2022-08-05T00:20:32;98068.25;;;25.83;61.80
929;BME280;451;47.988;7.842;2022-08-05T00:29:33;98085.50;;;25.82;60.88
929;BME280;451;47.988;7.842;2022-08-05T00:38:35;98065.38;;;25.69;61.63
929;BME280;451;47.988;7.842;2022-08-05T00:47:39;98132.06;;;25.92;63.80
929;BME280;451;47.988;7.842;2022-08-05T00:56:41;98128.66;;;25.72;64.56
929;BME280;451;47.988;7.842;2022-08-05T01:05:43;98152.53;;;25.98;64.51
929;BME280;451;47.988;7.842;2022-08-05T01:14:54;98162.97;;;26.05;65.17
929;BME280;451;47.988;7.842;2022-08-05T01:34:14;98164.25;;;26.18;65.46
929;BME280;451;47.988;7.842;2022-08-05T01:43:14;98173.41;;;25.52;69.59
929;BME280;451;47.988;7.842;2022-08-05T01:52:17;98187.22;;;26.05;67.76
929;BME280;451;47.988;7.842;2022-08-05T02:01:22;98155.63;;;25.66;70.07
929;BME280;451;47.988;7.842;2022-08-05T02:10:30;98158.06;;;25.43;71.05
929;BME280;451;47.988;7.842;2022-08-05T02:19:35;98181.25;;;25.34;69.02
929;BME280;451;47.988;7.842;2022-08-05T02:28:40;98161.13;;;25.01;70.26
929;BME280;451;47.988;7.842;2022-08-05T02:37:43;98162.44;;;24.78;70.83
929;BME280;451;47.988;7.842;2022-08-05T02:46:46;98158.41;;;24.80;70.61
929;BME280;451;47.988;7.842;2022-08-05T02:55:49;98133.13;;;24.36;72.36
929;BME280;451;47.988;7.842;2022-08-05T03:04:54;98151.69;;;24.68;72.47
929;BME280;451;47.988;7.842;2022-08-05T03:13:57;98147.34;;;24.31;73.64
929;BME280;451;47.988;7.842;2022-08-05T03:23:00;98171.28;;;24.43;73.87
929;BME280;451;47.988;7.842;2022-08-05T03:32:03;98145.75;;;24.40;74.53
929;BME280;451;47.988;7.842;2022-08-05T03:41:06;98119.03;;;23.93;76.21
929;BME280;451;47.988;7.842;2022-08-05T03:50:08;98154.25;;;24.02;77.31
929;BME280;451;47.988;7.842;2022-08-05T03:59:23;98151.66;;;24.37;75.18
929;BME280;451;47.988;7.842;2022-08-05T04:08:27;98151.13;;;24.40;75.32
929;BME280;451;47.988;7.842;2022-08-05T04:17:32;98159.88;;;24.05;77.41
929;BME280;451;47.988;7.842;2022-08-05T04:26:34;98214.03;;;24.39;77.47
929;BME280;451;47.988;7.842;2022-08-05T04:35:36;98317.78;;;23.93;79.94
929;BME280;451;47.988;7.842;2022-08-05T04:44:37;98306.97;;;24.30;80.49
929;BME280;451;47.988;7.842;2022-08-05T04:53:39;98336.72;;;24.76;78.90
929;BME280;451;47.988;7.842;2022-08-05T05:02:41;98345.16;;;25.15;77.88
929;BME280;451;47.988;7.842;2022-08-05T05:11:43;98325.44;;;24.84;79.13
929;BME280;451;47.988;7.842;2022-08-05T05:20:46;98393.59;;;25.05;81.05
929;BME280;451;47.988;7.842;2022-08-05T05:29:47;98356.56;;;24.55;84.16
929;BME280;451;47.988;7.842;2022-08-05T05:38:49;98323.34;;;25.01;81.69
929;BME280;451;47.988;7.842;2022-08-05T05:47:51;98367.56;;;25.76;78.70
929;BME280;451;47.988;7.842;2022-08-05T05:56:53;98393.41;;;25.92;77.84
929;BME280;451;47.988;7.842;2022-08-05T06:05:54;98278.16;;;25.64;75.34
929;BME280;451;47.988;7.842;2022-08-05T06:14:56;98380.91;;;26.52;75.43
929;BME280;451;47.988;7.842;2022-08-05T06:23:58;98377.78;;;26.84;72.51
929;BME280;451;47.988;7.842;2022-08-05T06:33:00;98410.66;;;27.45;68.31
929;BME280;451;47.988;7.842;2022-08-05T06:42:01;98394.84;;;27.28;69.38
929;BME280;451;47.988;7.842;2022-08-05T06:51:06;98352.44;;;26.90;68.95
929;BME280;451;47.988;7.842;2022-08-05T07:00:08;98433.09;;;26.97;71.07
929;BME280;451;47.988;7.842;2022-08-05T07:09:10;98404.59;;;26.55;71.23
929;BME280;451;47.988;7.842;2022-08-05T07:18:12;98444.34;;;27.14;68.77
929;BME280;451;47.988;7.842;2022-08-05T07:27:14;98419.25;;;27.08;69.12
929;BME280;451;47.988;7.842;2022-08-05T07:36:16;98408.72;;;27.56;65.86
929;BME280;451;47.988;7.842;2022-08-05T07:45:17;98399.59;;;27.81;65.33
929;BME280;451;47.988;7.842;2022-08-05T07:54:19;98415.00;;;28.67;62.00
929;BME280;451;47.988;7.842;2022-08-05T08:03:22;98391.41;;;29.34;58.63
929;BME280;451;47.988;7.842;2022-08-05T08:12:24;98345.53;;;28.81;51.95
929;BME280;451;47.988;7.842;2022-08-05T08:21:26;98407.25;;;28.31;51.78
929;BME280;451;47.988;7.842;2022-08-05T08:30:28;98361.56;;;28.54;51.42
929;BME280;451;47.988;7.842;2022-08-05T08:39:29;98363.13;;;29.02;49.77
929;BME280;451;47.988;7.842;2022-08-05T08:48:31;98322.25;;;29.68;48.36
929;BME280;451;47.988;7.842;2022-08-05T08:57:33;98348.16;;;31.25;45.69
929;BME280;451;47.988;7.842;2022-08-05T09:06:35;98229.91;;;29.65;47.40
929;BME280;451;47.988;7.842;2022-08-05T09:15:37;98326.78;;;30.60;46.99
929;BME280;451;47.988;7.842;2022-08-05T09:24:38;98311.66;;;31.40;43.51
929;BME280;451;47.988;7.842;2022-08-05T09:42:50;98272.72;;;33.14;41.22
929;BME280;451;47.988;7.842;2022-08-05T09:51:51;98277.63;;;33.55;38.70
929;BME280;451;47.988;7.842;2022-08-05T10:01:04;98258.72;;;33.50;39.17
929;BME280;451;47.988;7.842;2022-08-05T10:10:06;98261.84;;;33.70;38.95
929;BME280;451;47.988;7.842;2022-08-05T10:19:09;98276.53;;;33.48;40.05
929;BME280;451;47.988;7.842;2022-08-05T10:28:11;98249.78;;;33.07;40.49
929;BME280;451;47.988;7.842;2022-08-05T10:37:15;98270.88;;;32.41;40.94
929;BME280;451;47.988;7.842;2022-08-05T10:46:18;98265.59;;;32.44;41.16
929;BME280;451;47.988;7.842;2022-08-05T10:55:23;98249.59;;;33.38;39.48
929;BME280;451;47.988;7.842;2022-08-05T11:04:26;98249.94;;;34.29;38.52
929;BME280;451;47.988;7.842;2022-08-05T11:13:42;98244.88;;;34.11;38.38
929;BME280;451;47.988;7.842;2022-08-05T11:22:48;98255.75;;;34.69;38.49
929;BME280;451;47.988;7.842;2022-08-05T11:32:27;98268.16;;;34.88;37.95
929;BME280;451;47.988;7.842;2022-08-05T11:41:29;98239.19;;;33.86;39.77
929;BME280;451;47.988;7.842;2022-08-05T11:50:37;98247.81;;;32.56;41.67
929;BME280;451;47.988;7.842;2022-08-05T11:59:38;98275.75;;;32.96;43.84
929;BME280;451;47.988;7.842;2022-08-05T12:08:49;98274.00;;;33.08;42.53
929;BME280;451;47.988;7.842;2022-08-05T12:17:51;98218.69;;;32.99;42.64
929;BME280;451;47.988;7.842;2022-08-05T12:26:53;98265.16;;;33.11;42.76
929;BME280;451;47.988;7.842;2022-08-05T12:35:55;98263.41;;;33.96;42.00
929;BME280;451;47.988;7.842;2022-08-05T12:45:05;98268.88;;;34.26;40.65
929;BME280;451;47.988;7.842;2022-08-05T12:54:07;98275.75;;;34.32;41.44
929;BME280;451;47.988;7.842;2022-08-05T13:03:10;98265.94;;;34.60;40.92
929;BME280;451;47.988;7.842;2022-08-05T13:12:13;98244.13;;;33.93;41.34
929;BME280;451;47.988;7.842;2022-08-05T13:21:15;98237.53;;;34.03;41.65
929;BME280;451;47.988;7.842;2022-08-05T13:30:20;98222.97;;;33.90;41.70
929;BME280;451;47.988;7.842;2022-08-05T13:39:24;98205.47;;;33.53;41.22
929;BME280;451;47.988;7.842;2022-08-05T13:48:26;98212.38;;;34.89;39.86
929;BME280;451;47.988;7.842;2022-08-05T13:57:27;98186.28;;;34.79;39.33
929;BME280;451;47.988;7.842;2022-08-05T14:06:29;98210.03;;;33.23;42.03
929;BME280;451;47.988;7.842;2022-08-05T14:15:31;98156.47;;;33.18;42.28
929;BME280;451;47.988;7.842;2022-08-05T14:24:33;98248.75;;;33.72;41.50
929;BME280;451;47.988;7.842;2022-08-05T14:33:35;98239.34;;;32.57;43.60
929;BME280;451;47.988;7.842;2022-08-05T14:42:39;98209.69;;;32.21;45.69
929;BME280;451;47.988;7.842;2022-08-05T14:51:41;98209.84;;;32.16;48.83
929;BME280;451;47.988;7.842;2022-08-05T15:00:43;98252.16;;;32.39;49.60
929;BME280;451;47.988;7.842;2022-08-05T15:09:45;98209.47;;;32.09;50.81
929;BME280;451;47.988;7.842;2022-08-05T15:18:46;98258.47;;;30.03;60.72
929;BME280;451;47.988;7.842;2022-08-05T15:27:48;98220.69;;;30.07;62.72
929;BME280;451;47.988;7.842;2022-08-05T15:36:50;98275.53;;;30.18;63.91
929;BME280;451;47.988;7.842;2022-08-05T15:45:51;98319.25;;;29.70;67.07
929;BME280;451;47.988;7.842;2022-08-05T15:54:53;98285.03;;;29.09;69.67
929;BME280;451;47.988;7.842;2022-08-05T16:03:55;98356.63;;;28.61;74.53
929;BME280;451;47.988;7.842;2022-08-05T16:12:56;98361.66;;;28.43;74.54
929;BME280;451;47.988;7.842;2022-08-05T16:21:58;98323.59;;;28.16;74.37
929;BME280;451;47.988;7.842;2022-08-05T16:31:00;98280.19;;;27.45;74.68
929;BME280;451;47.988;7.842;2022-08-05T16:40:03;98372.44;;;27.96;75.70
929;BME280;451;47.988;7.842;2022-08-05T16:49:06;98372.28;;;27.48;76.38
929;BME280;451;47.988;7.842;2022-08-05T16:58:09;98402.94;;;27.67;77.05
929;BME280;451;47.988;7.842;2022-08-05T17:07:11;98399.09;;;27.79;76.93
929;BME280;451;47.988;7.842;2022-08-05T17:16:14;98410.81;;;27.64;76.01
929;BME280;451;47.988;7.842;2022-08-05T17:25:16;98423.28;;;27.94;75.22
929;BME280;451;47.988;7.842;2022-08-05T17:34:18;98416.28;;;27.59;73.83
929;BME280;451;47.988;7.842;2022-08-05T17:43:20;98438.72;;;27.49;73.83
929;BME280;451;47.988;7.842;2022-08-05T17:52:22;98469.94;;;27.21;74.93
929;BME280;451;47.988;7.842;2022-08-05T18:01:24;98464.13;;;27.48;74.15
929;BME280;451;47.988;7.842;2022-08-05T18:10:26;98485.59;;;27.24;74.22
929;BME280;451;47.988;7.842;2022-08-05T18:19:27;98468.88;;;27.17;73.51
929;BME280;451;47.988;7.842;2022-08-05T18:28:30;98527.53;;;27.02;75.49
929;BME280;451;47.988;7.842;2022-08-05T18:37:32;98575.03;;;26.82;74.54
929;BME280;451;47.988;7.842;2022-08-05T18:46:33;98595.00;;;26.81;76.00
929;BME280;451;47.988;7.842;2022-08-05T18:55:35;98568.31;;;26.90;74.87
929;BME280;451;47.988;7.842;2022-08-05T19:04:37;98585.28;;;26.80;77.32
929;BME280;451;47.988;7.842;2022-08-05T19:13:39;98603.13;;;26.76;76.63
929;BME280;451;47.988;7.842;2022-08-05T19:22:42;98620.41;;;26.30;75.55
929;BME280;451;47.988;7.842;2022-08-05T19:31:44;98586.38;;;26.08;76.51
929;BME280;451;47.988;7.842;2022-08-05T19:40:45;98642.91;;;25.93;79.67
929;BME280;451;47.988;7.842;2022-08-05T19:49:47;98648.69;;;26.27;78.71
929;BME280;451;47.988;7.842;2022-08-05T19:58:49;98607.13;;;26.08;77.40
929;BME280;451;47.988;7.842;2022-08-05T20:07:51;98663.22;;;26.16;76.66
929;BME280;451;47.988;7.842;2022-08-05T20:16:54;98703.72;;;25.74;80.68
929;BME280;451;47.988;7.842;2022-08-05T20:25:56;98704.94;;;25.51;80.24
929;BME280;451;47.988;7.842;2022-08-05T20:34:57;98708.66;;;25.40;81.50
929;BME280;451;47.988;7.842;2022-08-05T20:43:59;98672.56;;;24.67;86.78
929;BME280;451;47.988;7.842;2022-08-05T20:53:02;98751.22;;;24.09;95.54
929;BME280;451;47.988;7.842;2022-08-05T21:02:04;98691.94;;;23.33;100.00
929;BME280;451;47.988;7.842;2022-08-05T21:11:05;98723.41;;;23.77;98.47
929;BME280;451;47.988;7.842;2022-08-05T21:20:08;98766.81;;;23.68;97.14
929;BME280;451;47.988;7.842;2022-08-05T21:29:10;98755.66;;;23.43;92.63
929;BME280;451;47.988;7.842;2022-08-05T21:38:12;98745.28;;;23.30;92.01
929;BME280;451;47.988;7.842;2022-08-05T21:47:14;98786.69;;;23.34;80.75
929;BME280;451;47.988;7.842;2022-08-05T21:56:16;98838.25;;;23.36;77.42
929;BME280;451;47.988;7.842;2022-08-05T22:05:17;98824.06;;;23.24;76.79
929;BME280;451;47.988;7.842;2022-08-05T22:14:19;98832.09;;;22.90;76.96
929;BME280;451;47.988;7.842;2022-08-05T22:23:21;98836.25;;;22.58;80.61
929;BME280;451;47.988;7.842;2022-08-05T22:32:42;98858.97;;;22.96;79.65
929;BME280;451;47.988;7.842;2022-08-05T22:41:43;98834.63;;;22.57;83.12
929;BME280;451;47.988;7.842;2022-08-05T22:50:45;98803.78;;;22.83;81.54
929;BME280;451;47.988;7.842;2022-08-05T22:59:47;98861.34;;;22.52;87.03
929;BME280;451;47.988;7.842;2022-08-05T23:08:48;98867.78;;;22.28;90.37
929;BME280;451;47.988;7.842;2022-08-05T23:17:50;98864.41;;;22.21;92.54
929;BME280;451;47.988;7.842;2022-08-05T23:26:52;98816.25;;;21.97;93.80
929;BME280;451;47.988;7.842;2022-08-05T23:35:54;98817.28;;;21.96;96.14
929;BME280;451;47.988;7.842;2022-08-05T23:44:55;98836.59;;;21.87;98.24
929;BME280;451;47.988;7.842;2022-08-05T23:53:57;98858.72;;;22.05;99.94
